Aeroporto :
LOGIN :

Iscrizione | Disclaimer

   EN    FR    IT 

 










Sommario :    VFR   VFR Marginale   IFR   IFR Intensivo   IFR Molto Intensivo
Visibilità : 
Base nubi : 
>= 8 km
>= 3000ft
5 / 8 km
1000 / 3000 ft
1500m / 5 km
500 / 1000 ft
800 / 1500m
200 / 500 ft
< 800m
< 200 ft
Simboli :   Temporali  Nebbia  Neve Forte  Precipitazioni Forti  Vento > 20 kt
SIGMETs :   Varie  Temporali  Ghiacco  Turbolenza  Onda orograficha  Ceneri Vulcaniche







- Altitudine del aeroporto : 13 ft
- Codice IATA : OST


EBOS - Oostend bruges Int.

ULTIMO METAR :
  • 161620Z 05008KT 020V100 9999 BKN006 16/14 Q1021 TEMPO 3000 DZ

METARs OBSOLETI :
  • 161550Z 03008KT 9000 BKN007 BKN011 16/15 Q1021 TEMPO 3000 DZ
  • 161520Z 33004KT 310V010 8000 FEW008 BKN014 17/15 Q1021 TEMPO 3000 DZ BKN006
  • 161450Z 33005KT 6000 SCT004 BKN022 16/15 Q1021 REDZ TEMPO 3000 DZ BKN006
  • 161420Z 33007KT 300V010 3400 DZ BR BKN004 17/15 Q1021 TEMPO 8000 SCT008 BKN012
  • 161350Z 31006KT 3000 -RADZ BR FEW004 BKN007 17/15 Q1021 TEMPO 8000 SCT008 BKN012

TAF AMD TAF EBOS
Valido dal 16 a 12 ore il 17 a 18 ore UTC


161450Z 1612/1718 30006KT 9000 BKN020
TEMPO 1615/1721 4000 -RA SCT008 BKN013
TEMPO 1615/1618 2800 -DZRA BKN006
Nessun NOTAM noto per questo aeroporto.



MetMap, La meteo Aeronautica in un colpo d'occhio ! - Copyright ORBIFLY Dicembre 2007 - Disclaimer

ORBIFLY MET'MAP TEAM :

Programmazione e sviluppo : Alexandra Zaïnal
Concezione e sviluppo : Baudouin d'Aumeries
Co-Programmazione e sviluppo : Marc-Olivier Méhu
Supporto tecnico e logistico : Manuel Goepfert
Aiuto per la traduzione : Arnaldo La Scala

Contatto : metmap@orbifly.com




FONTI E CREDITI :

   NOAA